Latest Weather Observations for Evans Head

IDN60801

Issued at 1:02 pm EST Tuesday 30 May 2017 (issued every 30 minutes, with the page automatically refreshed every 10 minutes)

About weather observations | Map of weather stations | Latest weather observations for NSW | Other Formats
Station Details ID: 058212 Name: EVANS HEAD RAAF BOMBING RANGE AWS Lat: -29.18 Lon: 153.40 Height: 62.5 m
Data from the previous 72 hours. | See also: Recent months at Evans Head
Date/Time
EST
Temp
°C
App
Temp
°C
Dew
Point
°C
Rel
Hum
%
Delta-T
°C
Wind Press
QNH
hPa
Press
MSL
hPa
Rain since
9am
mm
Dir  Spd
km/h
Gust
km/h
Spd
kts
Gust
kts
30/01:00pm 19.6 18.2 12.1 62 4.2 SSE 11 15 6 8 1021.0 1020.9 0.0
30/12:30pm 20.1 18.4 11.3 57 4.8 SSE 11 13 6 7 1021.3 1021.2 0.0
30/12:00pm 20.4 19.8 11.6 57 4.9 WNW 6 9 3 5 1021.7 1021.6 0.0
30/11:30am 18.7 17.3 10.8 60 4.3 WSW 9 13 5 7 1022.3 1022.2 0.0
30/11:00am 18.3 16.8 10.7 61 4.1 SW 9 17 5 9 1022.8 1022.7 0.0
30/10:30am 17.7 15.6 9.6 59 4.3 WSW 11 15 6 8 1023.2 1023.1 0.0
30/10:00am 17.4 15.0 8.5 56 4.6 W 11 17 6 9 1023.5 1023.4 0.0
30/09:30am 16.7 14.2 8.1 57 4.4 WSW 11 15 6 8 1023.4 1023.3 0.0
30/09:00am 15.6 13.4 7.9 60 3.9 WNW 9 13 5 7 1023.4 1023.3 0.0
30/08:30am 14.6 11.3 6.2 57 4.0 W 13 17 7 9 1023.0 1022.9 0.0
30/08:00am 13.1 9.7 5.8 61 3.4 W 13 19 7 10 1022.7 1022.6 0.0
30/07:30am 12.6 8.7 5.3 61 3.4 W 15 22 8 12 1022.6 1022.5 0.0
30/07:00am 11.9 8.4 5.5 65 3.0 W 13 17 7 9 1022.4 1022.3 0.0
30/06:30am 12.4 8.5 5.3 62 3.3 W 15 20 8 11 1022.3 1022.2 0.0
30/06:00am 12.0 8.2 5.6 65 3.0 W 15 20 8 11 1022.1 1022.0 0.0
30/05:30am 12.4 8.6 5.6 63 3.2 WSW 15 20 8 11 1021.9 1021.8 0.0
30/05:00am 12.7 8.5 5.8 63 3.2 W 17 22 9 12 1022.0 1021.9 0.0
30/04:30am 12.9 8.7 5.8 62 3.3 W 17 20 9 11 1021.8 1021.7 0.0
30/04:00am 13.0 9.3 6.1 63 3.3 W 15 19 8 10 1021.9 1021.8 0.0
30/03:30am 13.2 9.4 5.6 60 3.6 W 15 20 8 11 1021.5 1021.4 0.0
30/03:00am 13.6 9.8 5.7 59 3.7 WSW 15 22 8 12 1021.8 1021.7 0.0
30/02:30am 13.7 9.6 6.1 60 3.6 WSW 17 22 9 12 1021.6 1021.5 0.0
30/02:00am 13.5 9.9 6.6 63 3.3 WSW 15 22 8 12 1021.6 1021.5 0.0
30/01:30am 13.9 10.2 6.5 61 3.6 WSW 15 20 8 11 1021.5 1021.4 0.0
30/01:00am 13.8 10.7 7.1 64 3.3 SW 13 20 7 11 1021.3 1021.2 0.0
30/12:30am 14.4 10.7 7.9 65 3.2 WSW 17 24 9 13 1021.3 1021.2 0.0
30/12:00am 15.1 11.4 8.1 63 3.5 SW 17 24 9 13 1021.3 1021.2 0.0
 
Date/Time
EST
Temp
°C
App
Temp
°C
Dew
Point
°C
Rel
Hum
%
Delta-T
°C
Wind Press
QNH
hPa
Press
MSL
hPa
Rain since
9am
mm
Dir  Spd
km/h
Gust
km/h
Spd
kts
Gust
kts
29/11:30pm 14.9 11.9 9.1 68 3.0 SW 15 20 8 11 1021.2 1021.1 0.0
29/11:00pm 15.8 13.2 9.2 65 3.4 SW 13 19 7 10 1021.8 1021.7 0.0
29/10:30pm 16.5 14.5 10.1 66 3.4 SW 11 19 6 10 1021.3 1021.2 0.0
29/10:00pm 18.2 15.2 10.8 62 4.0 SE 17 20 9 11 1021.5 1021.4 0.0
29/09:30pm 17.5 15.0 10.9 65 3.6 SSE 15 20 8 11 1021.7 1021.6 0.0
29/09:00pm 17.9 15.4 11.0 64 3.7 SSE 15 20 8 11 1021.3 1021.2 0.0
29/08:30pm 18.1 14.7 11.2 64 3.8 SE 20 32 11 17 1020.8 1020.7 0.0
29/08:00pm 18.1 15.0 11.7 66 3.5 SSE 19 28 10 15 1020.4 1020.3 0.0
29/07:30pm 18.2 15.4 11.5 65 3.7 SSE 17 24 9 13 1020.0 1019.9 0.0
29/07:00pm 18.1 15.5 11.9 67 3.4 SE 17 22 9 12 1019.7 1019.6 0.0
29/06:30pm 18.2 15.8 12.6 70 3.1 SE 17 22 9 12 1019.4 1019.3 0.0
29/06:00pm 18.0 16.6 12.2 69 3.2 SSE 11 19 6 10 1018.8 1018.7 0.0
29/05:30pm 18.0 17.0 13.5 75 2.6 SSE 11 15 6 8 1018.5 1018.4 0.0
29/05:00pm 18.9 18.2 13.3 70 3.2 SE 9 13 5 7 1017.9 1017.8 0.0
29/04:30pm 20.8 20.1 10.0 50 5.8 NW 4 7 2 4 1017.5 1017.3 0.0
29/04:00pm 22.0 21.2 11.7 52 5.8 NW 7 11 4 6 1017.1 1016.9 0.0
29/03:30pm 23.2 22.2 10.9 46 6.8 WNW 7 11 4 6 1017.0 1016.8 0.0
29/03:00pm 23.7 22.7 11.1 45 7.0 NW 7 13 4 7 1016.9 1016.7 0.0
29/02:30pm 23.9 22.1 10.9 44 7.3 NW 11 22 6 12 1016.9 1016.7 0.0
29/02:00pm 24.0 23.1 11.3 45 7.1 NW 7 11 4 6 1017.0 1016.8 0.0
29/01:30pm 23.5 22.3 11.5 47 6.8 WNW 9 17 5 9 1017.0 1016.8 0.0
29/01:00pm 23.4 21.4 11.5 47 6.7 NW 13 22 7 12 1017.3 1017.1 0.0
29/12:30pm 23.0 20.2 10.1 44 7.1 NW 15 26 8 14 1017.4 1017.2 0.0
29/12:00pm 23.8 22.8 13.4 52 6.0 NW 11 17 6 9 1017.7 1017.6 0.0
29/11:30am 22.7 21.4 12.6 53 5.8 NW 11 17 6 9 1018.0 1017.9 0.0
29/11:00am 22.3 20.0 11.7 51 5.9 NW 15 24 8 13 1018.3 1018.2 0.0
29/10:30am 21.3 19.8 11.9 55 5.3 WNW 11 24 6 13 1018.6 1018.5 0.0
29/10:00am 21.4 19.3 12.3 56 5.1 NW 15 24 8 13 1018.5 1018.4 0.0
29/09:30am 20.7 19.7 12.4 59 4.7 NW 9 15 5 8 1018.5 1018.4 0.0
29/09:00am 19.6 18.4 11.6 60 4.4 NW 9 17 5 9 1018.2 1018.1 0.8
29/08:30am 18.4 17.7 13.3 72 2.9 NNW 9 15 5 8 1018.0 1017.9 0.8
29/08:00am 16.5 16.4 13.8 84 1.5 NNW 7 13 4 7 1017.5 1017.3 0.8
29/07:30am 14.7 14.6 13.2 91 0.8 NW 6 9 3 5 1017.3 1017.1 0.8
29/07:00am 14.0 12.5 13.1 94 0.5 NW 13 22 7 12 1017.1 1016.9 0.8
29/06:30am 12.8 11.7 12.0 95 0.4 NNW 9 13 5 7 1016.8 1016.6 0.8
29/06:00am 13.2 11.5 12.4 95 0.4 N 13 19 7 10 1016.5 1016.3 0.8
29/05:30am 13.1 10.9 12.2 94 0.5 N 15 19 8 10 1016.4 1016.2 0.6
29/05:00am 13.3 12.0 12.4 94 0.5 N 11 15 6 8 1016.2 1016.0 0.6
29/04:30am 13.8 12.6 12.7 93 0.6 N 11 15 6 8 1016.1 1015.9 0.6
29/04:00am 13.9 13.0 12.6 92 0.7 NNW 9 17 5 9 1016.2 1016.0 0.6
29/03:30am 14.4 12.8 12.8 90 0.9 NNW 13 20 7 11 1016.3 1016.1 0.6
29/03:00am 15.1 14.0 13.1 88 1.1 N 11 15 6 8 1016.5 1016.3 0.6
29/02:30am 16.3 14.7 13.8 85 1.4 NW 15 20 8 11 1016.5 1016.3 0.6
29/02:00am 16.4 15.2 13.9 85 1.4 WNW 13 17 7 9 1016.7 1016.5 0.6
29/01:30am 16.5 15.4 14.2 86 1.3 NW 13 17 7 9 1016.8 1016.6 0.6
29/01:00am 15.7 14.9 13.9 89 1.0 NNW 11 19 6 10 1016.9 1016.7 0.6
29/12:30am 15.8 15.1 14.2 90 0.9 NW 11 17 6 9 1016.9 1016.7 0.6
29/12:00am 14.6 13.2 13.5 93 0.6 NNW 13 17 7 9 1016.8 1016.6 0.6
 
Date/Time
EST
Temp
°C
App
Temp
°C
Dew
Point
°C
Rel
Hum
%
Delta-T
°C
Wind Press
QNH
hPa
Press
MSL
hPa
Rain since
9am
mm
Dir  Spd
km/h
Gust
km/h
Spd
kts
Gust
kts
28/11:30pm 14.7 13.3 13.4 92 0.7 N 13 17 7 9 1016.8 1016.6 0.6
28/11:00pm 14.7 13.6 13.2 91 0.8 NNW 11 17 6 9 1017.0 1016.8 0.6
28/10:30pm 15.1 14.0 13.1 88 1.1 NNW 11 15 6 8 1017.2 1017.0 0.6
28/10:00pm 15.8 14.1 13.6 87 1.2 NNW 15 22 8 12 1017.1 1016.9 0.6
28/09:30pm 16.0 14.1 13.1 83 1.6 NNW 15 20 8 11 1017.0 1016.8 0.6
28/09:00pm 16.1 14.2 14.3 89 1.0 N 17 26 9 14 1017.0 1016.8 0.6
28/08:30pm 17.1 14.8 14.7 86 1.4 NNW 20 35 11 19 1017.2 1017.0 0.0
28/08:00pm 16.2 14.9 14.7 91 0.9 NNW 15 22 8 12 1017.0 1016.8 0.0
28/07:30pm 16.5 16.0 15.0 91 0.9 N 11 15 6 8 1016.0 1015.8 0.0
28/07:00pm 16.4 15.5 14.9 91 0.9 N 13 17 7 9 1016.1 1015.9 0.0
28/06:30pm 16.4 16.0 14.2 87 1.3 N 9 11 5 6 1015.7 1015.5 0.0
28/06:00pm 16.9 16.2 14.4 85 1.4 N 11 13 6 7 1015.4 1015.2 0.0
28/05:30pm 17.7 17.1 14.6 82 1.8 NNE 11 15 6 8 1015.2 1015.0 0.0
28/05:00pm 18.3 18.0 15.4 83 1.7 NNE 11 15 6 8 1014.9 1014.7 0.0
28/04:30pm 19.5 20.0 16.5 83 1.8 NE 9 13 5 7 1014.9 1014.7 0.0
28/04:00pm 19.3 19.7 16.3 83 1.8 E 9 13 5 7 1015.1 1014.9 0.0
28/03:30pm 19.2 19.5 16.1 82 1.9 ESE 9 13 5 7 1015.4 1015.2 0.0
28/03:00pm 20.0 20.4 16.2 79 2.3 SE 9 13 5 7 1015.3 1015.1 0.0
28/02:30pm 19.9 19.9 16.3 80 2.2 SSE 11 17 6 9 1015.4 1015.2 0.0
28/02:00pm 20.9 20.8 15.9 73 3.0 S 11 17 6 9 1015.8 1015.6 0.0
28/01:30pm 21.6 22.3 15.7 69 3.5 W 6 9 3 5 1016.2 1016.0 0.0
28/01:00pm 21.1 22.9 15.4 70 3.4 CALM 0 7 0 4 1016.5 1016.3 0.0
28/12:30pm 20.5 21.7 15.9 75 2.8 WSW 4 9 2 5 1016.8 1016.6 0.0
28/12:00pm 20.5 21.2 15.7 74 2.9 W 6 9 3 5 1017.1 1016.9 0.0
28/11:30am 20.5 20.5 15.1 71 3.2 NNW 9 19 5 10 1017.5 1017.3 0.0
28/11:00am 21.8 21.2 15.6 68 3.7 N 13 22 7 12 1017.5 1017.3 0.0
28/10:30am 22.6 22.0 16.6 69 3.7 N 15 22 8 12 1017.6 1017.4 0.0
28/10:00am 21.8 20.5 15.9 69 3.5 N 17 26 9 14 1017.9 1017.8 0.0
28/09:30am 21.0 20.7 15.5 71 3.3 N 11 24 6 13 1018.1 1018.0 0.0
28/09:00am 19.8 19.9 15.4 76 2.6 N 9 19 5 10 1018.4 1018.3 0.2
28/08:30am 18.3 18.8 15.6 84 1.6 N 7 13 4 7 1018.2 1018.1 0.2
28/08:00am 16.8 17.9 15.5 92 0.8 WNW 4 7 2 4 1018.3 1018.2 0.2
28/07:30am 15.2 14.9 14.4 95 0.5 NW 9 11 5 6 1018.3 1018.2 0.2
28/07:00am 14.3 13.4 13.8 97 0.3 NW 11 13 6 7 1018.2 1018.1 0.2
28/06:30am 12.9 11.9 12.3 96 0.3 NNW 9 15 5 8 1017.9 1017.8 0.2
28/06:00am 12.5 10.9 11.7 95 0.4 N 11 13 6 7 1017.5 1017.3 0.2
28/05:30am 12.8 11.7 11.9 94 0.5 NNW 9 11 5 6 1017.7 1017.6 0.2
28/05:00am 13.1 12.4 12.0 93 0.6 NNW 7 9 4 5 1017.6 1017.4 0.2
28/04:30am 14.2 15.0 13.6 96 0.3 NNW 2 6 1 3 1017.6 1017.4 0.2
28/04:00am 13.3 12.3 12.4 94 0.5 N 9 17 5 9 1017.5 1017.3 0.2
28/03:30am 13.7 12.8 12.6 93 0.6 N 9 13 5 7 1017.6 1017.4 0.0
28/03:00am 14.2 13.4 12.8 91 0.8 NNW 9 11 5 6 1018.0 1017.9 0.0
28/02:30am 15.2 14.4 14.1 93 0.6 WNW 11 13 6 7 1018.2 1018.1 0.0
28/02:00am 14.4 13.9 13.8 96 0.3 NNW 9 13 5 7 1018.5 1018.4 0.0
28/01:30am 14.0 12.9 13.2 95 0.4 NNW 11 13 6 7 1018.9 1018.8 0.0
28/01:00am 13.7 12.9 12.8 94 0.5 N 9 11 5 6 1019.0 1018.9 0.0
28/12:30am 14.1 13.4 13.1 94 0.6 N 9 17 5 9 1019.1 1019.0 0.0
28/12:00am 14.3 13.3 13.3 94 0.6 N 11 13 6 7 1019.4 1019.3 0.0
 
Date/Time
EST
Temp
°C
App
Temp
°C
Dew
Point
°C
Rel
Hum
%
Delta-T
°C
Wind Press
QNH
hPa
Press
MSL
hPa
Rain since
9am
mm
Dir  Spd
km/h
Gust
km/h
Spd
kts
Gust
kts
27/11:30pm 14.7 13.4 13.6 93 0.6 N 13 15 7 8 1019.6 1019.5 0.0
27/11:00pm 14.9 14.0 13.8 93 0.6 N 11 15 6 8 1019.7 1019.6 0.0
27/10:30pm 15.2 14.8 14.1 93 0.6 NNW 9 13 5 7 1019.9 1019.8 0.0
27/10:00pm 15.4 15.0 14.1 92 0.7 N 9 13 5 7 1020.0 1019.9 0.0
27/09:30pm 15.8 14.8 14.5 92 0.7 N 13 20 7 11 1020.0 1019.9 0.0
27/09:00pm 15.7 14.6 14.4 92 0.7 N 13 20 7 11 1020.2 1020.1 0.0
27/08:30pm 16.1 14.8 14.8 92 0.7 N 15 20 8 11 1020.2 1020.1 0.0
27/08:00pm 16.0 15.0 14.5 91 0.9 N 13 19 7 10 1020.1 1020.0 0.0
27/07:30pm 16.1 15.1 14.5 90 0.9 N 13 15 7 8 1020.1 1020.0 0.0
27/07:00pm 16.7 15.9 15.1 90 0.9 N 13 17 7 9 1019.8 1019.7 0.0
27/06:30pm 17.0 16.2 15.2 89 1.0 NNE 13 15 7 8 1019.6 1019.5 0.0
27/06:00pm 17.2 16.4 15.2 88 1.2 NNE 13 17 7 9 1019.3 1019.2 0.0
27/05:30pm 17.8 17.9 15.6 87 1.3 NE 9 13 5 7 1019.1 1019.0 0.0
27/05:00pm 18.4 18.6 15.8 85 1.5 NE 9 13 5 7 1019.0 1018.9 0.0
27/04:30pm 19.0 19.3 15.9 82 1.8 ENE 9 15 5 8 1019.0 1018.9 0.0
27/04:00pm 19.4 19.7 15.9 80 2.1 ENE 9 15 5 8 1019.1 1019.0 0.0
27/03:30pm 20.0 19.8 15.8 77 2.5 E 11 15 6 8 1019.1 1019.0 0.0
27/03:00pm 20.2 19.5 15.4 74 2.8 E 13 19 7 10 1019.1 1019.0 0.0
27/02:30pm 20.5 20.2 15.5 73 3.0 ESE 11 17 6 9 1019.1 1019.0 0.0
27/02:00pm 21.1 21.2 15.4 70 3.4 E 9 15 5 8 1019.2 1019.1 0.0
27/01:30pm 20.9 20.6 15.4 71 3.3 ESE 11 22 6 12 1019.6 1019.5 0.0

Other Formats:

Comma delimited format used in spreadsheet applications
http://www.bom.gov.au/fwo/IDN60801/IDN60801.94598.axf

JavaScript Object Notation format (JSON) in row-major order
http://www.bom.gov.au/fwo/IDN60801/IDN60801.94598.json